sensor_id;sensor_type;location;lat;lon;timestamp;pressure;altitude;pressure_sealevel;temperature;humidity
64025;BME280;50266;57.446;26.936;2022-09-12T00:00:21;99188.8;;;8.28;100.0
64025;BME280;50266;57.446;26.936;2022-09-12T00:01:22;99188.82;;;8.25;100.0
64025;BME280;50266;57.446;26.936;2022-09-12T00:02:21;99185.77;;;8.31;100.0
64025;BME280;50266;57.446;26.936;2022-09-12T00:03:21;99184.85;;;8.34;100.0
64025;BME280;50266;57.446;26.936;2022-09-12T00:04:21;99182.13;;;8.29;100.0
64025;BME280;50266;57.446;26.936;2022-09-12T00:05:21;99180.12;;;8.25;100.0
64025;BME280;50266;57.446;26.936;2022-09-12T00:06:23;99179.2;;;8.23;100.0
64025;BME280;50266;57.446;26.936;2022-09-12T00:07:21;99180.78;;;8.23;100.0
64025;BME280;50266;57.446;26.936;2022-09-12T00:08:21;99180.12;;;8.23;100.0
64025;BME280;50266;57.446;26.936;2022-09-12T00:09:21;99179.53;;;8.23;100.0
64025;BME280;50266;57.446;26.936;2022-09-12T00:10:21;99182.41;;;8.22;100.0
64025;BME280;50266;57.446;26.936;2022-09-12T00:11:21;99179.69;;;8.23;100.0
64025;BME280;50266;57.446;26.936;2022-09-12T00:12:21;99177.88;;;8.28;100.0
64025;BME280;50266;57.446;26.936;2022-09-12T00:13:21;99176.73;;;8.25;100.0
64025;BME280;50266;57.446;26.936;2022-09-12T00:14:21;99176.59;;;8.24;100.0
64025;BME280;50266;57.446;26.936;2022-09-12T00:15:22;99175.61;;;8.27;100.0
64025;BME280;50266;57.446;26.936;2022-09-12T00:16:23;99179.59;;;8.24;100.0
64025;BME280;50266;57.446;26.936;2022-09-12T00:17:22;99175.27;;;8.24;100.0
64025;BME280;50266;57.446;26.936;2022-09-12T00:18:22;99177.19;;;8.22;100.0
64025;BME280;50266;57.446;26.936;2022-09-12T00:19:22;99179.27;;;8.22;100.0
64025;BME280;50266;57.446;26.936;2022-09-12T00:20:22;99175.91;;;8.27;100.0
64025;BME280;50266;57.446;26.936;2022-09-12T00:21:22;99174.52;;;8.2;100.0
64025;BME280;50266;57.446;26.936;2022-09-12T00:22:22;99174.84;;;8.23;100.0
64025;BME280;50266;57.446;26.936;2022-09-12T00:23:22;99175.55;;;8.24;100.0
64025;BME280;50266;57.446;26.936;2022-09-12T00:24:22;99176.17;;;8.22;100.0
64025;BME280;50266;57.446;26.936;2022-09-12T00:25:22;99172.5;;;8.19;100.0
64025;BME280;50266;57.446;26.936;2022-09-12T00:26:22;99178.17;;;8.2;100.0
64025;BME280;50266;57.446;26.936;2022-09-12T00:27:22;99178.39;;;8.23;100.0
64025;BME280;50266;57.446;26.936;2022-09-12T00:28:22;99176.83;;;8.23;100.0
64025;BME280;50266;57.446;26.936;2022-09-12T00:29:22;99175.89;;;8.24;100.0
64025;BME280;50266;57.446;26.936;2022-09-12T00:30:22;99178.84;;;8.22;100.0
64025;BME280;50266;57.446;26.936;2022-09-12T00:31:22;99177.14;;;8.21;100.0
64025;BME280;50266;57.446;26.936;2022-09-12T00:32:22;99179.59;;;8.24;100.0
64025;BME280;50266;57.446;26.936;2022-09-12T00:33:22;99177.7;;;8.19;100.0
64025;BME280;50266;57.446;26.936;2022-09-12T00:34:22;99181.75;;;8.19;100.0
64025;BME280;50266;57.446;26.936;2022-09-12T00:35:22;99177.8;;;8.19;100.0
64025;BME280;50266;57.446;26.936;2022-09-12T00:36:23;99182.43;;;8.19;100.0
64025;BME280;50266;57.446;26.936;2022-09-12T00:37:22;99182.97;;;8.2;100.0
64025;BME280;50266;57.446;26.936;2022-09-12T00:38:22;99188.8;;;8.21;100.0
64025;BME280;50266;57.446;26.936;2022-09-12T00:39:22;99185.7;;;8.22;100.0
64025;BME280;50266;57.446;26.936;2022-09-12T00:40:22;99186.95;;;8.22;100.0
64025;BME280;50266;57.446;26.936;2022-09-12T00:41:26;99190.12;;;8.23;100.0
64025;BME280;50266;57.446;26.936;2022-09-12T00:42:22;99188.58;;;8.2;100.0
64025;BME280;50266;57.446;26.936;2022-09-12T00:45:26;99185.55;;;8.15;100.0
64025;BME280;50266;57.446;26.936;2022-09-12T00:47:27;99183.11;;;8.13;100.0
64025;BME280;50266;57.446;26.936;2022-09-12T00:48:31;99186.27;;;8.11;100.0
64025;BME280;50266;57.446;26.936;2022-09-12T00:49:43;99183.62;;;8.11;100.0
64025;BME280;50266;57.446;26.936;2022-09-12T00:50:31;99184.22;;;8.13;100.0
64025;BME280;50266;57.446;26.936;2022-09-12T00:51:31;99183.58;;;8.1;100.0
64025;BME280;50266;57.446;26.936;2022-09-12T00:52:35;99187.31;;;8.11;100.0
64025;BME280;50266;57.446;26.936;2022-09-12T00:53:35;99181.19;;;8.11;100.0
64025;BME280;50266;57.446;26.936;2022-09-12T00:54:40;99181.34;;;8.16;100.0
64025;BME280;50266;57.446;26.936;2022-09-12T00:55:41;99180.79;;;8.11;100.0
64025;BME280;50266;57.446;26.936;2022-09-12T00:56:40;99183.56;;;8.09;100.0
64025;BME280;50266;57.446;26.936;2022-09-12T00:57:44;99178.83;;;8.09;100.0
64025;BME280;50266;57.446;26.936;2022-09-12T00:58:50;99179.82;;;8.11;100.0
64025;BME280;50266;57.446;26.936;2022-09-12T00:59:55;99179.47;;;8.11;100.0
64025;BME280;50266;57.446;26.936;2022-09-12T01:00:48;99179.14;;;8.11;100.0
64025;BME280;50266;57.446;26.936;2022-09-12T01:01:48;99179.5;;;8.07;100.0
64025;BME280;50266;57.446;26.936;2022-09-12T01:02:49;99178.12;;;8.05;100.0
64025;BME280;50266;57.446;26.936;2022-09-12T01:03:48;99177.45;;;8.05;100.0
64025;BME280;50266;57.446;26.936;2022-09-12T01:04:48;99174.58;;;8.05;100.0
64025;BME280;50266;57.446;26.936;2022-09-12T01:05:58;99177.62;;;8.1;100.0
64025;BME280;50266;57.446;26.936;2022-09-12T01:06:53;99174.08;;;8.05;100.0
64025;BME280;50266;57.446;26.936;2022-09-12T01:07:53;99174.2;;;8.07;100.0
64025;BME280;50266;57.446;26.936;2022-09-12T01:08:53;99173.33;;;8.05;100.0
64025;BME280;50266;57.446;26.936;2022-09-12T01:09:53;99170.23;;;8.04;100.0
64025;BME280;50266;57.446;26.936;2022-09-12T01:10:53;99169.16;;;8.04;100.0
64025;BME280;50266;57.446;26.936;2022-09-12T01:11:53;99171.5;;;8.05;100.0
64025;BME280;50266;57.446;26.936;2022-09-12T01:12:53;99165.83;;;8.02;100.0
64025;BME280;50266;57.446;26.936;2022-09-12T01:13:53;99165.71;;;8.03;100.0
64025;BME280;50266;57.446;26.936;2022-09-12T01:14:53;99169.97;;;8.05;100.0
64025;BME280;50266;57.446;26.936;2022-09-12T01:15:53;99167.02;;;8.06;100.0
64025;BME280;50266;57.446;26.936;2022-09-12T01:16:53;99165.62;;;8.06;100.0
64025;BME280;50266;57.446;26.936;2022-09-12T01:23:31;99159.66;;;8.04;100.0
64025;BME280;50266;57.446;26.936;2022-09-12T01:24:26;99156.76;;;8.04;100.0
64025;BME280;50266;57.446;26.936;2022-09-12T01:26:25;99158.59;;;8.05;100.0
64025;BME280;50266;57.446;26.936;2022-09-12T01:27:21;99164.05;;;8.03;100.0
64025;BME280;50266;57.446;26.936;2022-09-12T01:31:48;99164.51;;;8.07;100.0
64025;BME280;50266;57.446;26.936;2022-09-12T01:34:38;99162.97;;;8.04;100.0
64025;BME280;50266;57.446;26.936;2022-09-12T01:36:43;99166.84;;;8.02;100.0
64025;BME280;50266;57.446;26.936;2022-09-12T01:39:01;99165.5;;;8.02;100.0
64025;BME280;50266;57.446;26.936;2022-09-12T01:39:58;99163.09;;;8.02;100.0
64025;BME280;50266;57.446;26.936;2022-09-12T01:42:09;99164.95;;;8.03;100.0
64025;BME280;50266;57.446;26.936;2022-09-12T01:43:04;99157.12;;;8.0;100.0
64025;BME280;50266;57.446;26.936;2022-09-12T01:44:08;99159.0;;;8.01;100.0
64025;BME280;50266;57.446;26.936;2022-09-12T01:45:20;99157.81;;;7.99;100.0
64025;BME280;50266;57.446;26.936;2022-09-12T01:46:14;99160.2;;;8.02;100.0
64025;BME280;50266;57.446;26.936;2022-09-12T01:47:08;99159.64;;;8.02;100.0
64025;BME280;50266;57.446;26.936;2022-09-12T01:48:10;99154.11;;;8.02;100.0
64025;BME280;50266;57.446;26.936;2022-09-12T01:49:14;99158.73;;;8.02;100.0
64025;BME280;50266;57.446;26.936;2022-09-12T01:50:20;99157.77;;;8.03;100.0
64025;BME280;50266;57.446;26.936;2022-09-12T01:51:15;99158.19;;;8.01;100.0
64025;BME280;50266;57.446;26.936;2022-09-12T01:53:28;99159.9;;;8.02;100.0
64025;BME280;50266;57.446;26.936;2022-09-12T01:54:18;99165.73;;;8.07;100.0
64025;BME280;50266;57.446;26.936;2022-09-12T01:55:35;99163.33;;;8.14;100.0
64025;BME280;50266;57.446;26.936;2022-09-12T01:56:20;99162.3;;;8.09;100.0
64025;BME280;50266;57.446;26.936;2022-09-12T01:57:19;99160.86;;;8.04;100.0
64025;BME280;50266;57.446;26.936;2022-09-12T01:58:19;99155.31;;;8.0;100.0
64025;BME280;50266;57.446;26.936;2022-09-12T01:59:25;99160.04;;;8.02;100.0
64025;BME280;50266;57.446;26.936;2022-09-12T02:00:18;99160.42;;;8.03;100.0
64025;BME280;50266;57.446;26.936;2022-09-12T02:01:27;99158.17;;;8.01;100.0
64025;BME280;50266;57.446;26.936;2022-09-12T02:02:24;99156.05;;;8.03;100.0
64025;BME280;50266;57.446;26.936;2022-09-12T02:03:25;99157.12;;;7.98;100.0
64025;BME280;50266;57.446;26.936;2022-09-12T02:04:24;99158.36;;;8.01;100.0
64025;BME280;50266;57.446;26.936;2022-09-12T02:05:27;99156.7;;;8.05;100.0
64025;BME280;50266;57.446;26.936;2022-09-12T02:06:35;99158.83;;;8.03;100.0
64025;BME280;50266;57.446;26.936;2022-09-12T02:07:48;99157.75;;;8.01;100.0
64025;BME280;50266;57.446;26.936;2022-09-12T02:08:32;99156.3;;;8.03;100.0
64025;BME280;50266;57.446;26.936;2022-09-12T02:10:34;99160.66;;;8.04;100.0
64025;BME280;50266;57.446;26.936;2022-09-12T02:11:34;99159.97;;;8.04;100.0
64025;BME280;50266;57.446;26.936;2022-09-12T02:12:36;99160.42;;;8.05;100.0
64025;BME280;50266;57.446;26.936;2022-09-12T02:13:43;99158.12;;;8.05;100.0
64025;BME280;50266;57.446;26.936;2022-09-12T02:14:39;99161.42;;;8.08;100.0
64025;BME280;50266;57.446;26.936;2022-09-12T02:15:48;99158.58;;;8.09;100.0
64025;BME280;50266;57.446;26.936;2022-09-12T02:16:45;99163.11;;;8.11;100.0
64025;BME280;50266;57.446;26.936;2022-09-12T02:17:44;99163.48;;;8.11;100.0
64025;BME280;50266;57.446;26.936;2022-09-12T02:18:44;99159.69;;;8.08;100.0
64025;BME280;50266;57.446;26.936;2022-09-12T02:19:45;99158.67;;;8.08;100.0
64025;BME280;50266;57.446;26.936;2022-09-12T02:20:44;99163.47;;;8.08;100.0
64025;BME280;50266;57.446;26.936;2022-09-12T02:21:45;99158.79;;;8.05;100.0
64025;BME280;50266;57.446;26.936;2022-09-12T02:22:44;99161.23;;;8.08;100.0
64025;BME280;50266;57.446;26.936;2022-09-12T02:23:45;99159.52;;;8.07;100.0
64025;BME280;50266;57.446;26.936;2022-09-12T02:24:46;99161.08;;;8.05;100.0
64025;BME280;50266;57.446;26.936;2022-09-12T02:25:45;99163.8;;;8.03;100.0
64025;BME280;50266;57.446;26.936;2022-09-12T02:26:54;99164.58;;;8.11;100.0
64025;BME280;50266;57.446;26.936;2022-09-12T02:27:52;99168.15;;;8.07;100.0
64025;BME280;50266;57.446;26.936;2022-09-12T02:28:49;99164.72;;;8.05;100.0
64025;BME280;50266;57.446;26.936;2022-09-12T02:29:49;99164.44;;;8.09;100.0
64025;BME280;50266;57.446;26.936;2022-09-12T02:30:50;99166.23;;;8.09;100.0
64025;BME280;50266;57.446;26.936;2022-09-12T02:31:53;99168.17;;;8.06;100.0
64025;BME280;50266;57.446;26.936;2022-09-12T02:32:57;99166.54;;;8.05;100.0
64025;BME280;50266;57.446;26.936;2022-09-12T02:35:06;99168.83;;;8.06;100.0
64025;BME280;50266;57.446;26.936;2022-09-12T02:36:07;99167.45;;;8.1;100.0
64025;BME280;50266;57.446;26.936;2022-09-12T02:39:03;99159.5;;;8.04;100.0
64025;BME280;50266;57.446;26.936;2022-09-12T02:40:03;99169.09;;;8.04;100.0
64025;BME280;50266;57.446;26.936;2022-09-12T02:41:03;99164.42;;;8.07;100.0
64025;BME280;50266;57.446;26.936;2022-09-12T02:42:03;99163.66;;;8.07;100.0
64025;BME280;50266;57.446;26.936;2022-09-12T02:43:04;99164.2;;;8.06;100.0
64025;BME280;50266;57.446;26.936;2022-09-12T02:44:03;99164.61;;;8.07;100.0
64025;BME280;50266;57.446;26.936;2022-09-12T02:45:03;99163.68;;;8.04;100.0
64025;BME280;50266;57.446;26.936;2022-09-12T02:46:04;99160.34;;;8.03;100.0
64025;BME280;50266;57.446;26.936;2022-09-12T02:47:07;99161.72;;;8.04;100.0
64025;BME280;50266;57.446;26.936;2022-09-12T02:48:13;99164.86;;;8.08;100.0
64025;BME280;50266;57.446;26.936;2022-09-12T02:49:06;99163.4;;;8.06;100.0
64025;BME280;50266;57.446;26.936;2022-09-12T02:50:07;99165.64;;;8.05;100.0
64025;BME280;50266;57.446;26.936;2022-09-12T02:51:06;99160.61;;;8.05;100.0
64025;BME280;50266;57.446;26.936;2022-09-12T02:52:06;99162.67;;;8.07;100.0
64025;BME280;50266;57.446;26.936;2022-09-12T02:53:06;99163.28;;;8.06;100.0
64025;BME280;50266;57.446;26.936;2022-09-12T02:54:07;99162.73;;;8.06;100.0
64025;BME280;50266;57.446;26.936;2022-09-12T02:55:07;99164.18;;;8.05;100.0
64025;BME280;50266;57.446;26.936;2022-09-12T02:56:07;99167.89;;;8.07;100.0
64025;BME280;50266;57.446;26.936;2022-09-12T02:57:16;99164.5;;;8.11;100.0
64025;BME280;50266;57.446;26.936;2022-09-12T02:58:10;99166.36;;;8.15;100.0
64025;BME280;50266;57.446;26.936;2022-09-12T02:59:08;99165.69;;;8.08;100.0
64025;BME280;50266;57.446;26.936;2022-09-12T03:00:08;99166.5;;;8.09;100.0
64025;BME280;50266;57.446;26.936;2022-09-12T03:01:13;99165.45;;;8.1;100.0
64025;BME280;50266;57.446;26.936;2022-09-12T03:03:24;99166.73;;;8.07;100.0
64025;BME280;50266;57.446;26.936;2022-09-12T03:05:30;99165.43;;;8.04;100.0
64025;BME280;50266;57.446;26.936;2022-09-12T03:06:30;99164.91;;;8.03;100.0
64025;BME280;50266;57.446;26.936;2022-09-12T03:07:38;99165.03;;;8.06;100.0
64025;BME280;50266;57.446;26.936;2022-09-12T03:08:33;99162.62;;;8.07;100.0
64025;BME280;50266;57.446;26.936;2022-09-12T03:10:41;99167.23;;;8.05;100.0
64025;BME280;50266;57.446;26.936;2022-09-12T03:11:42;99166.47;;;8.01;100.0
64025;BME280;50266;57.446;26.936;2022-09-12T03:12:58;99164.45;;;8.03;100.0
64025;BME280;50266;57.446;26.936;2022-09-12T03:13:44;99168.28;;;8.01;100.0
64025;BME280;50266;57.446;26.936;2022-09-12T03:17:02;99164.53;;;8.04;100.0
64025;BME280;50266;57.446;26.936;2022-09-12T03:20:13;99164.64;;;8.0;100.0
64025;BME280;50266;57.446;26.936;2022-09-12T03:21:03;99165.34;;;7.99;100.0
64025;BME280;50266;57.446;26.936;2022-09-12T03:23:03;99164.83;;;8.0;100.0
64025;BME280;50266;57.446;26.936;2022-09-12T03:24:17;99163.86;;;7.99;100.0
64025;BME280;50266;57.446;26.936;2022-09-12T03:25:13;99164.34;;;8.0;100.0
64025;BME280;50266;57.446;26.936;2022-09-12T03:26:12;99163.81;;;8.0;100.0
64025;BME280;50266;57.446;26.936;2022-09-12T03:27:13;99165.0;;;8.0;100.0
64025;BME280;50266;57.446;26.936;2022-09-12T03:28:14;99167.1;;;8.01;100.0
64025;BME280;50266;57.446;26.936;2022-09-12T03:29:12;99163.72;;;8.01;100.0
64025;BME280;50266;57.446;26.936;2022-09-12T03:30:12;99167.66;;;8.07;100.0
64025;BME280;50266;57.446;26.936;2022-09-12T03:31:15;99166.09;;;8.07;100.0
64025;BME280;50266;57.446;26.936;2022-09-12T03:32:13;99164.3;;;8.03;100.0
64025;BME280;50266;57.446;26.936;2022-09-12T03:33:13;99168.23;;;8.02;100.0
64025;BME280;50266;57.446;26.936;2022-09-12T03:34:13;99168.02;;;7.99;100.0
64025;BME280;50266;57.446;26.936;2022-09-12T03:35:13;99168.27;;;7.96;100.0
64025;BME280;50266;57.446;26.936;2022-09-12T03:36:20;99168.25;;;7.99;100.0
64025;BME280;50266;57.446;26.936;2022-09-12T03:37:18;99167.62;;;8.03;100.0
64025;BME280;50266;57.446;26.936;2022-09-12T03:38:18;99173.41;;;8.05;100.0
64025;BME280;50266;57.446;26.936;2022-09-12T03:39:18;99169.61;;;8.01;100.0
64025;BME280;50266;57.446;26.936;2022-09-12T03:40:18;99174.95;;;8.01;100.0
64025;BME280;50266;57.446;26.936;2022-09-12T03:41:18;99174.19;;;7.99;100.0
64025;BME280;50266;57.446;26.936;2022-09-12T03:42:18;99173.62;;;8.01;100.0
64025;BME280;50266;57.446;26.936;2022-09-12T03:43:18;99173.53;;;8.02;100.0
64025;BME280;50266;57.446;26.936;2022-09-12T03:44:18;99176.05;;;8.08;100.0
64025;BME280;50266;57.446;26.936;2022-09-12T03:45:18;99180.41;;;8.02;100.0
64025;BME280;50266;57.446;26.936;2022-09-12T03:46:18;99180.7;;;8.0;100.0
64025;BME280;50266;57.446;26.936;2022-09-12T03:47:18;99179.48;;;8.0;100.0
64025;BME280;50266;57.446;26.936;2022-09-12T03:48:18;99181.06;;;8.02;100.0
64025;BME280;50266;57.446;26.936;2022-09-12T03:49:18;99181.68;;;8.01;100.0
64025;BME280;50266;57.446;26.936;2022-09-12T03:50:18;99181.62;;;7.99;100.0
64025;BME280;50266;57.446;26.936;2022-09-12T03:51:18;99180.29;;;8.03;100.0
64025;BME280;50266;57.446;26.936;2022-09-12T03:52:18;99177.48;;;8.07;100.0
64025;BME280;50266;57.446;26.936;2022-09-12T03:53:18;99181.05;;;8.05;100.0
64025;BME280;50266;57.446;26.936;2022-09-12T03:54:18;99182.7;;;8.02;100.0
64025;BME280;50266;57.446;26.936;2022-09-12T03:55:18;99180.78;;;8.0;100.0
64025;BME280;50266;57.446;26.936;2022-09-12T03:56:18;99185.08;;;8.02;100.0
64025;BME280;50266;57.446;26.936;2022-09-12T03:57:18;99187.05;;;7.99;100.0
64025;BME280;50266;57.446;26.936;2022-09-12T03:58:18;99186.28;;;7.99;100.0
64025;BME280;50266;57.446;26.936;2022-09-12T03:59:18;99185.19;;;8.05;100.0
64025;BME280;50266;57.446;26.936;2022-09-12T04:00:18;99183.69;;;8.04;100.0
64025;BME280;50266;57.446;26.936;2022-09-12T04:01:18;99187.16;;;8.02;100.0
64025;BME280;50266;57.446;26.936;2022-09-12T04:02:18;99186.0;;;8.02;100.0
64025;BME280;50266;57.446;26.936;2022-09-12T04:03:18;99186.77;;;8.04;100.0
64025;BME280;50266;57.446;26.936;2022-09-12T04:04:19;99190.77;;;8.06;100.0
64025;BME280;50266;57.446;26.936;2022-09-12T04:05:18;99189.08;;;8.04;100.0
64025;BME280;50266;57.446;26.936;2022-09-12T04:06:19;99184.52;;;8.0;100.0
64025;BME280;50266;57.446;26.936;2022-09-12T04:07:18;99185.02;;;8.0;100.0
64025;BME280;50266;57.446;26.936;2022-09-12T04:08:18;99189.78;;;8.01;100.0
64025;BME280;50266;57.446;26.936;2022-09-12T04:09:18;99187.09;;;8.02;100.0
64025;BME280;50266;57.446;26.936;2022-09-12T04:10:18;99189.48;;;8.0;100.0
64025;BME280;50266;57.446;26.936;2022-09-12T04:11:19;99194.48;;;7.98;100.0
64025;BME280;50266;57.446;26.936;2022-09-12T04:12:18;99191.31;;;7.99;100.0
64025;BME280;50266;57.446;26.936;2022-09-12T04:13:18;99193.47;;;8.02;100.0
64025;BME280;50266;57.446;26.936;2022-09-12T04:14:18;99191.97;;;8.07;100.0
64025;BME280;50266;57.446;26.936;2022-09-12T04:15:18;99192.79;;;8.04;100.0
64025;BME280;50266;57.446;26.936;2022-09-12T04:16:18;99191.81;;;8.01;100.0
64025;BME280;50266;57.446;26.936;2022-09-12T04:17:19;99192.59;;;8.0;100.0
64025;BME280;50266;57.446;26.936;2022-09-12T04:18:18;99196.16;;;8.02;100.0
64025;BME280;50266;57.446;26.936;2022-09-12T04:19:18;99199.64;;;8.0;100.0
64025;BME280;50266;57.446;26.936;2022-09-12T04:20:18;99203.4;;;8.02;100.0
64025;BME280;50266;57.446;26.936;2022-09-12T04:21:19;99200.82;;;8.02;100.0
64025;BME280;50266;57.446;26.936;2022-09-12T04:22:18;99206.33;;;8.05;100.0
64025;BME280;50266;57.446;26.936;2022-09-12T04:23:18;99206.03;;;8.05;100.0
64025;BME280;50266;57.446;26.936;2022-09-12T04:24:18;99203.7;;;8.04;100.0
64025;BME280;50266;57.446;26.936;2022-09-12T04:25:18;99202.69;;;8.01;100.0
64025;BME280;50266;57.446;26.936;2022-09-12T04:26:19;99201.88;;;8.07;100.0
64025;BME280;50266;57.446;26.936;2022-09-12T04:27:19;99204.11;;;8.02;100.0
64025;BME280;50266;57.446;26.936;2022-09-12T04:28:19;99204.96;;;8.04;100.0
64025;BME280;50266;57.446;26.936;2022-09-12T04:29:19;99203.94;;;8.0;100.0
64025;BME280;50266;57.446;26.936;2022-09-12T04:30:19;99198.17;;;7.99;100.0
64025;BME280;50266;57.446;26.936;2022-09-12T04:31:19;99205.94;;;7.97;100.0
64025;BME280;50266;57.446;26.936;2022-09-12T04:32:19;99206.81;;;7.98;100.0
64025;BME280;50266;57.446;26.936;2022-09-12T04:33:19;99203.2;;;8.02;100.0
64025;BME280;50266;57.446;26.936;2022-09-12T04:34:19;99208.07;;;8.0;100.0
64025;BME280;50266;57.446;26.936;2022-09-12T04:35:19;99207.36;;;8.09;100.0
64025;BME280;50266;57.446;26.936;2022-09-12T04:36:19;99209.05;;;8.05;100.0
64025;BME280;50266;57.446;26.936;2022-09-12T04:37:19;99205.81;;;8.04;100.0
64025;BME280;50266;57.446;26.936;2022-09-12T04:38:19;99209.09;;;8.04;100.0
64025;BME280;50266;57.446;26.936;2022-09-12T04:39:19;99210.73;;;8.07;100.0
64025;BME280;50266;57.446;26.936;2022-09-12T04:40:19;99210.73;;;8.05;100.0
64025;BME280;50266;57.446;26.936;2022-09-12T04:41:21;99212.19;;;7.99;100.0
64025;BME280;50266;57.446;26.936;2022-09-12T04:42:19;99213.17;;;7.99;100.0
64025;BME280;50266;57.446;26.936;2022-09-12T04:43:19;99214.44;;;8.01;100.0
64025;BME280;50266;57.446;26.936;2022-09-12T04:44:19;99215.8;;;8.02;100.0
64025;BME280;50266;57.446;26.936;2022-09-12T04:45:19;99215.36;;;8.03;100.0
64025;BME280;50266;57.446;26.936;2022-09-12T04:46:19;99219.45;;;8.06;100.0
64025;BME280;50266;57.446;26.936;2022-09-12T04:47:19;99219.64;;;8.05;100.0
64025;BME280;50266;57.446;26.936;2022-09-12T04:48:19;99210.97;;;8.08;100.0
64025;BME280;50266;57.446;26.936;2022-09-12T04:49:19;99215.64;;;8.06;100.0
64025;BME280;50266;57.446;26.936;2022-09-12T04:50:19;99211.22;;;8.03;100.0
64025;BME280;50266;57.446;26.936;2022-09-12T04:51:23;99223.48;;;8.04;100.0
64025;BME280;50266;57.446;26.936;2022-09-12T04:52:20;99218.3;;;8.08;100.0
64025;BME280;50266;57.446;26.936;2022-09-12T04:53:20;99217.16;;;8.05;100.0
64025;BME280;50266;57.446;26.936;2022-09-12T04:54:20;99217.06;;;8.04;100.0
64025;BME280;50266;57.446;26.936;2022-09-12T04:55:21;99215.22;;;8.06;100.0
64025;BME280;50266;57.446;26.936;2022-09-12T04:56:21;99216.94;;;8.04;100.0
64025;BME280;50266;57.446;26.936;2022-09-12T04:57:20;99221.8;;;8.02;100.0
64025;BME280;50266;57.446;26.936;2022-09-12T04:58:20;99221.95;;;8.06;100.0
64025;BME280;50266;57.446;26.936;2022-09-12T04:59:21;99216.69;;;8.07;100.0
64025;BME280;50266;57.446;26.936;2022-09-12T05:00:21;99216.41;;;8.08;100.0
64025;BME280;50266;57.446;26.936;2022-09-12T05:01:21;99217.93;;;8.16;100.0
64025;BME280;50266;57.446;26.936;2022-09-12T05:02:21;99214.83;;;8.14;100.0
64025;BME280;50266;57.446;26.936;2022-09-12T05:03:21;99218.05;;;8.15;100.0
64025;BME280;50266;57.446;26.936;2022-09-12T05:04:21;99219.48;;;8.18;100.0
64025;BME280;50266;57.446;26.936;2022-09-12T05:05:21;99211.94;;;8.14;100.0
64025;BME280;50266;57.446;26.936;2022-09-12T05:06:21;99212.6;;;8.12;100.0
64025;BME280;50266;57.446;26.936;2022-09-12T05:07:21;99209.65;;;8.13;100.0
64025;BME280;50266;57.446;26.936;2022-09-12T05:08:21;99209.32;;;8.14;100.0
64025;BME280;50266;57.446;26.936;2022-09-12T05:09:21;99205.9;;;8.17;100.0
64025;BME280;50266;57.446;26.936;2022-09-12T05:10:21;99208.69;;;8.17;100.0
64025;BME280;50266;57.446;26.936;2022-09-12T05:11:22;99205.11;;;8.15;100.0
64025;BME280;50266;57.446;26.936;2022-09-12T05:12:26;99206.98;;;8.08;100.0
64025;BME280;50266;57.446;26.936;2022-09-12T05:13:26;99205.46;;;8.06;100.0
64025;BME280;50266;57.446;26.936;2022-09-12T05:14:26;99207.31;;;8.08;100.0
64025;BME280;50266;57.446;26.936;2022-09-12T05:15:26;99205.59;;;8.1;100.0
64025;BME280;50266;57.446;26.936;2022-09-12T05:16:28;99208.92;;;8.2;100.0
64025;BME280;50266;57.446;26.936;2022-09-12T05:17:27;99207.6;;;8.18;100.0
64025;BME280;50266;57.446;26.936;2022-09-12T05:18:26;99211.7;;;8.21;100.0
64025;BME280;50266;57.446;26.936;2022-09-12T05:19:26;99212.55;;;8.18;100.0
64025;BME280;50266;57.446;26.936;2022-09-12T05:20:26;99212.18;;;8.14;100.0
64025;BME280;50266;57.446;26.936;2022-09-12T05:21:26;99209.98;;;8.13;100.0
64025;BME280;50266;57.446;26.936;2022-09-12T05:22:26;99207.14;;;8.12;100.0
64025;BME280;50266;57.446;26.936;2022-09-12T05:23:26;99212.16;;;8.17;100.0
64025;BME280;50266;57.446;26.936;2022-09-12T05:24:26;99212.91;;;8.11;100.0
64025;BME280;50266;57.446;26.936;2022-09-12T05:25:26;99213.41;;;8.11;100.0
64025;BME280;50266;57.446;26.936;2022-09-12T05:26:26;99211.56;;;8.15;100.0
64025;BME280;50266;57.446;26.936;2022-09-12T05:27:26;99210.59;;;8.13;100.0
64025;BME280;50266;57.446;26.936;2022-09-12T05:28:33;99210.22;;;8.18;100.0
64025;BME280;50266;57.446;26.936;2022-09-12T05:29:30;99211.61;;;8.16;100.0
64025;BME280;50266;57.446;26.936;2022-09-12T05:30:30;99208.45;;;8.2;100.0
64025;BME280;50266;57.446;26.936;2022-09-12T05:31:30;99210.19;;;8.31;100.0
64025;BME280;50266;57.446;26.936;2022-09-12T05:32:30;99212.84;;;8.29;100.0
64025;BME280;50266;57.446;26.936;2022-09-12T05:33:30;99213.76;;;8.27;100.0
64025;BME280;50266;57.446;26.936;2022-09-12T05:34:30;99211.42;;;8.25;100.0
64025;BME280;50266;57.446;26.936;2022-09-12T05:35:30;99219.98;;;8.35;100.0
64025;BME280;50266;57.446;26.936;2022-09-12T05:36:30;99217.49;;;8.32;100.0
64025;BME280;50266;57.446;26.936;2022-09-12T05:37:30;99215.23;;;8.31;100.0
64025;BME280;50266;57.446;26.936;2022-09-12T05:38:30;99217.26;;;8.26;100.0
64025;BME280;50266;57.446;26.936;2022-09-12T05:39:30;99219.93;;;8.28;100.0
64025;BME280;50266;57.446;26.936;2022-09-12T05:40:30;99217.33;;;8.32;100.0
64025;BME280;50266;57.446;26.936;2022-09-12T05:41:30;99211.52;;;8.27;100.0
64025;BME280;50266;57.446;26.936;2022-09-12T05:42:30;99215.02;;;8.3;100.0
64025;BME280;50266;57.446;26.936;2022-09-12T05:43:33;99220.46;;;8.34;100.0
64025;BME280;50266;57.446;26.936;2022-09-12T05:44:30;99223.37;;;8.35;100.0
64025;BME280;50266;57.446;26.936;2022-09-12T05:45:30;99224.33;;;8.29;100.0
64025;BME280;50266;57.446;26.936;2022-09-12T05:46:31;99222.83;;;8.23;100.0
64025;BME280;50266;57.446;26.936;2022-09-12T05:47:31;99220.19;;;8.25;100.0
64025;BME280;50266;57.446;26.936;2022-09-12T05:48:31;99227.71;;;8.32;100.0
64025;BME280;50266;57.446;26.936;2022-09-12T05:49:31;99224.28;;;8.3;100.0
64025;BME280;50266;57.446;26.936;2022-09-12T05:50:31;99227.2;;;8.35;100.0
64025;BME280;50266;57.446;26.936;2022-09-12T05:51:32;99222.53;;;8.33;100.0
64025;BME280;50266;57.446;26.936;2022-09-12T05:52:31;99225.98;;;8.27;100.0